createdAt,value
2022-12-15T00:02:14.157Z,100288.59
2022-12-15T00:05:36.812Z,100293.47
2022-12-15T00:08:59.602Z,100294.69
2022-12-15T00:12:24.038Z,100291.22
2022-12-15T00:15:46.500Z,100301.72
2022-12-15T00:19:08.798Z,100300.19
2022-12-15T00:22:31.511Z,100308.03
2022-12-15T00:25:53.976Z,100304.97
2022-12-15T00:29:17.639Z,100309.56
2022-12-15T00:32:40.740Z,100310.38
2022-12-15T00:36:03.111Z,100316.34
2022-12-15T00:39:08.104Z,100320.38
2022-12-15T00:42:15.021Z,100330.22
2022-12-15T00:45:21.413Z,100339.19
2022-12-15T00:48:26.281Z,100332.88
2022-12-15T00:51:48.700Z,100344.16
2022-12-15T00:55:11.243Z,100348.78
2022-12-15T00:58:33.963Z,100346.31
2022-12-15T01:01:57.671Z,100356.03
2022-12-15T01:05:19.893Z,100353.91
2022-12-15T01:08:42.991Z,100349.03
2022-12-15T01:12:07.382Z,100351.75
2022-12-15T01:15:30.566Z,100350.53
2022-12-15T01:18:55.287Z,100360.34
2022-12-15T01:22:00.192Z,100359.25
2022-12-15T01:25:05.638Z,100362.69
2022-12-15T01:28:12.845Z,100375.91
2022-12-15T01:31:18.214Z,100377.59
2022-12-15T01:34:24.760Z,100369.25
2022-12-15T01:37:29.682Z,100376.91
2022-12-15T01:40:46.709Z,100381.63
2022-12-15T01:43:51.732Z,100386.09
2022-12-15T01:46:57.893Z,100392.66
2022-12-15T01:50:05.862Z,100388.63
2022-12-15T01:53:11.712Z,100392.88
2022-12-15T01:56:17.334Z,100382.63
2022-12-15T01:59:25.172Z,100390.66
2022-12-15T02:06:24.495Z,100383.09
2022-12-15T02:09:30.096Z,100384.16
2022-12-15T02:12:41.579Z,100387.13
2022-12-15T02:15:51.994Z,100392.81
2022-12-15T02:19:02.332Z,100402.22
2022-12-15T02:22:19.143Z,100397.44
2022-12-15T02:25:46.295Z,100391.19
2022-12-15T02:29:02.983Z,100399.63
2022-12-15T02:32:11.437Z,100407.56
2022-12-15T02:35:21.994Z,100406.88
2022-12-15T02:38:34.733Z,100414.38
2022-12-15T02:41:42.554Z,100412.69
2022-12-15T02:44:49.752Z,100416.44
2022-12-15T02:48:03.426Z,100421.97
2022-12-15T02:51:21.930Z,100418.50
2022-12-15T02:54:43.526Z,100432.22
2022-12-15T02:57:54.701Z,100433.06
2022-12-15T03:01:02.606Z,100427.91
2022-12-15T03:04:10.553Z,100429.03
2022-12-15T03:07:16.008Z,100433.16
2022-12-15T03:10:24.048Z,100433.22
2022-12-15T03:13:31.674Z,100425.31
2022-12-15T03:16:36.631Z,100432.13
2022-12-15T03:19:43.151Z,100429.22
2022-12-15T03:22:48.036Z,100423.34
2022-12-15T03:25:53.019Z,100419.00
2022-12-15T03:29:01.663Z,100425.78
2022-12-15T03:32:07.165Z,100409.94
2022-12-15T03:35:14.182Z,100424.38
2022-12-15T03:38:19.243Z,100430.97
2022-12-15T03:41:23.866Z,100444.88
2022-12-15T03:44:28.777Z,100442.53
2022-12-15T03:47:33.864Z,100442.53
2022-12-15T03:50:40.879Z,100449.34
2022-12-15T03:53:47.567Z,100453.94
2022-12-15T03:56:52.613Z,100457.56
2022-12-15T03:59:57.568Z,100464.59
2022-12-15T04:03:02.294Z,100468.56
2022-12-15T04:06:09.586Z,100466.38
2022-12-15T04:09:14.647Z,100472.94
2022-12-15T04:12:19.571Z,100488.44
2022-12-15T04:15:24.675Z,100483.84
2022-12-15T04:18:29.794Z,100501.06
2022-12-15T04:21:36.227Z,100494.84
2022-12-15T04:24:58.874Z,100487.59
2022-12-15T04:28:21.598Z,100494.56
2022-12-15T04:31:46.579Z,100502.19
2022-12-15T04:35:09.054Z,100499.72
2022-12-15T04:38:34.569Z,100511.09
2022-12-15T04:41:57.006Z,100520.28
2022-12-15T04:45:23.214Z,100507.56
2022-12-15T04:48:45.491Z,100512.09
2022-12-15T04:52:07.876Z,100518.41
2022-12-15T04:55:31.942Z,100515.06
2022-12-15T04:58:54.191Z,100509.78
2022-12-15T05:02:16.730Z,100519.22
2022-12-15T05:05:39.463Z,100521.38
2022-12-15T05:09:02.056Z,100528.72
2022-12-15T05:12:26.401Z,100525.81
2022-12-15T05:15:50.519Z,100524.09
2022-12-15T05:19:13.019Z,100521.78
2022-12-15T05:22:35.593Z,100525.88
2022-12-15T05:25:58.195Z,100531.88
2022-12-15T05:29:22.067Z,100538.56
2022-12-15T05:32:26.987Z,100534.81
2022-12-15T05:35:31.898Z,100533.69
2022-12-15T05:38:36.851Z,100534.53
2022-12-15T05:41:41.794Z,100538.41
2022-12-15T05:44:48.034Z,100533.81
2022-12-15T05:47:55.120Z,100537.63
2022-12-15T05:51:03.837Z,100557.47
2022-12-15T05:54:09.190Z,100553.69
2022-12-15T05:57:14.728Z,100543.28
2022-12-15T06:00:21.785Z,100554.53
2022-12-15T06:03:26.748Z,100564.25
2022-12-15T06:06:31.921Z,100557.09
2022-12-15T06:09:37.067Z,100565.38
2022-12-15T06:12:42.093Z,100565.81
2022-12-15T06:15:58.529Z,100566.09
2022-12-15T06:19:04.756Z,100575.00
2022-12-15T06:22:11.995Z,100567.50
2022-12-15T06:25:17.791Z,100573.91
2022-12-15T06:28:24.154Z,100585.53
2022-12-15T06:31:30.837Z,100589.22
2022-12-15T06:34:35.755Z,100590.97
2022-12-15T06:37:41.187Z,100586.81
2022-12-15T06:40:55.322Z,100583.81
2022-12-15T06:44:13.015Z,100589.00
2022-12-15T06:47:19.351Z,100595.94
2022-12-15T06:50:24.471Z,100604.72
2022-12-15T06:53:30.008Z,100606.75
2022-12-15T06:56:36.825Z,100613.91
2022-12-15T06:59:41.695Z,100619.59
2022-12-15T07:02:49.849Z,100619.34
2022-12-15T07:06:03.794Z,100619.06
2022-12-15T07:09:11.920Z,100618.28
2022-12-15T07:12:18.285Z,100615.19
2022-12-15T07:15:23.200Z,100613.78
2022-12-15T07:18:30.562Z,100624.81
2022-12-15T07:21:35.564Z,100619.28
2022-12-15T07:24:40.463Z,100628.19
2022-12-15T07:27:45.467Z,100625.91
2022-12-15T07:30:50.511Z,100617.31
2022-12-15T07:33:58.311Z,100622.00
2022-12-15T07:37:03.833Z,100624.81
2022-12-15T07:40:11.116Z,100631.59
2022-12-15T07:43:16.176Z,100635.63
2022-12-15T07:46:21.755Z,100644.09
2022-12-15T07:49:28.096Z,100650.69
2022-12-15T07:52:33.092Z,100660.31
2022-12-15T07:56:05.677Z,100657.31
2022-12-15T07:59:03.270Z,100667.72
2022-12-15T08:02:08.589Z,100670.16
2022-12-15T08:05:16.085Z,100672.06
2022-12-15T08:08:21.110Z,100684.97
2022-12-15T08:11:26.179Z,100670.81
2022-12-15T08:14:32.269Z,100681.41
2022-12-15T08:17:37.295Z,100693.59
2022-12-15T08:20:43.893Z,100687.88
2022-12-15T08:23:55.466Z,100689.59
2022-12-15T08:27:01.047Z,100691.19
2022-12-15T08:30:07.117Z,100697.38
2022-12-15T08:33:15.185Z,100694.25
2022-12-15T08:36:21.920Z,100693.34
2022-12-15T08:39:27.209Z,100690.31
2022-12-15T08:42:35.217Z,100696.22
2022-12-15T08:45:42.932Z,100694.13
2022-12-15T08:48:48.333Z,100691.66
2022-12-15T08:51:54.714Z,100703.19
2022-12-15T08:54:59.995Z,100695.78
2022-12-15T08:58:04.972Z,100696.44
2022-12-15T09:01:17.439Z,100693.25
2022-12-15T09:04:27.326Z,100698.00
2022-12-15T09:07:34.891Z,100693.47
2022-12-15T09:10:42.992Z,100702.09
2022-12-15T09:13:47.942Z,100702.41
2022-12-15T09:16:53.037Z,100691.13
2022-12-15T09:19:58.583Z,100697.84
2022-12-15T09:23:05.725Z,100696.28
2022-12-15T09:26:12.851Z,100700.59
2022-12-15T09:29:18.764Z,100697.41
2022-12-15T09:32:23.777Z,100699.28
2022-12-15T09:35:28.838Z,100694.13
2022-12-15T09:38:38.204Z,100700.69
2022-12-15T09:41:43.730Z,100696.31
2022-12-15T09:44:49.510Z,100710.63
2022-12-15T09:47:57.269Z,100707.53
2022-12-15T09:51:04.489Z,100720.44
2022-12-15T09:54:13.158Z,100727.38
2022-12-15T09:57:25.338Z,100723.88
2022-12-15T10:00:34.633Z,100733.91
2022-12-15T10:03:50.832Z,100736.28
2022-12-15T10:07:01.792Z,100742.09
2022-12-15T10:10:11.156Z,100750.75
2022-12-15T10:13:23.520Z,100751.53
2022-12-15T10:16:32.262Z,100757.38
2022-12-15T10:19:40.928Z,100744.09
2022-12-15T10:22:45.967Z,100736.59
2022-12-15T10:26:02.226Z,100739.69
2022-12-15T10:29:18.292Z,100736.97
2022-12-15T10:32:30.456Z,100730.84
2022-12-15T10:35:39.765Z,100737.06
2022-12-15T10:38:50.432Z,100746.72
2022-12-15T10:42:22.990Z,100744.09
2022-12-15T10:45:39.497Z,100744.19
2022-12-15T10:48:48.677Z,100735.41
2022-12-15T10:51:56.036Z,100744.09
2022-12-15T10:55:01.482Z,100743.41
2022-12-15T10:58:23.651Z,100749.63
2022-12-15T11:01:30.669Z,100750.19
2022-12-15T11:04:35.852Z,100736.94
2022-12-15T11:07:42.985Z,100729.97
2022-12-15T11:11:09.846Z,100737.66
2022-12-15T11:14:23.550Z,100744.31
2022-12-15T11:17:38.203Z,100740.63
2022-12-15T11:20:46.446Z,100752.88
2022-12-15T11:24:00.991Z,100748.50
2022-12-15T11:27:14.045Z,100741.00
2022-12-15T11:30:22.892Z,100747.88
2022-12-15T11:33:28.410Z,100756.91
2022-12-15T11:36:52.911Z,100753.53
2022-12-15T11:40:06.563Z,100748.69
2022-12-15T11:43:43.816Z,100741.59
2022-12-15T11:46:56.932Z,100754.94
2022-12-15T11:50:21.428Z,100763.28
2022-12-15T11:53:54.333Z,100770.09
2022-12-15T11:57:19.239Z,100765.53
2022-12-15T12:00:25.083Z,100777.22
2022-12-15T12:03:36.071Z,100776.91
2022-12-15T12:06:46.476Z,100768.41
2022-12-15T12:10:04.871Z,100775.47
2022-12-15T12:13:15.357Z,100773.59
2022-12-15T12:16:28.706Z,100766.97
2022-12-15T12:19:38.952Z,100772.34
2022-12-15T12:22:48.144Z,100775.72
2022-12-15T12:26:06.063Z,100783.97
2022-12-15T12:29:18.322Z,100794.91
2022-12-15T12:32:29.268Z,100784.16
2022-12-15T12:35:41.065Z,100790.41
2022-12-15T12:38:50.722Z,100773.69
2022-12-15T12:42:02.183Z,100783.34
2022-12-15T12:45:12.138Z,100786.41
2022-12-15T12:48:22.871Z,100791.84
2022-12-15T12:51:32.209Z,100786.19
2022-12-15T12:54:48.636Z,100796.81
2022-12-15T12:57:56.013Z,100800.13
2022-12-15T13:01:18.311Z,100797.75
2022-12-15T13:04:39.214Z,100799.31
2022-12-15T13:07:55.611Z,100798.22
2022-12-15T13:11:39.304Z,100805.34
2022-12-15T13:14:46.734Z,100789.81
2022-12-15T13:17:59.474Z,100802.53
2022-12-15T13:21:37.126Z,100805.38
2022-12-15T13:24:50.449Z,100805.09
2022-12-15T13:28:00.778Z,100805.25
2022-12-15T13:31:30.905Z,100798.44
2022-12-15T13:34:39.771Z,100800.53
2022-12-15T13:37:50.890Z,100811.72
2022-12-15T13:40:58.941Z,100809.47
2022-12-15T13:44:15.978Z,100822.22
2022-12-15T13:47:25.296Z,100809.94
2022-12-15T13:50:34.813Z,100818.94
2022-12-15T13:53:43.651Z,100823.41
2022-12-15T13:56:54.697Z,100823.00
2022-12-15T14:00:06.112Z,100817.13
2022-12-15T14:03:17.204Z,100824.84
2022-12-15T14:06:22.358Z,100830.84
2022-12-15T14:09:31.148Z,100829.09
2022-12-15T14:12:41.157Z,100826.81
2022-12-15T14:15:50.857Z,100837.75
2022-12-15T14:19:12.643Z,100844.88
2022-12-15T14:22:28.157Z,100842.19
2022-12-15T14:25:34.111Z,100834.69
2022-12-15T14:28:43.090Z,100838.34
2022-12-15T14:31:51.888Z,100843.53
2022-12-15T14:34:56.891Z,100842.47
2022-12-15T14:38:06.875Z,100841.94
2022-12-15T14:41:20.513Z,100831.41
2022-12-15T14:44:38.319Z,100842.47
2022-12-15T14:48:30.580Z,100834.25
2022-12-15T14:51:18.532Z,100836.59
2022-12-15T14:54:35.688Z,100838.94
2022-12-15T14:57:43.571Z,100837.75
2022-12-15T15:00:53.022Z,100848.66
2022-12-15T15:04:00.027Z,100836.16
2022-12-15T15:07:06.973Z,100847.13
2022-12-15T15:10:24.098Z,100851.44
2022-12-15T15:13:39.516Z,100847.41
2022-12-15T15:16:46.960Z,100847.78
2022-12-15T15:19:53.687Z,100859.09
2022-12-15T15:23:12.706Z,100859.72
2022-12-15T15:26:18.654Z,100873.97
2022-12-15T15:29:39.168Z,100875.44
2022-12-15T15:32:54.305Z,100877.78
2022-12-15T15:36:01.011Z,100879.41
2022-12-15T15:39:12.930Z,100875.44
2022-12-15T15:42:18.005Z,100881.88
2022-12-15T15:45:23.760Z,100879.41
2022-12-15T15:48:33.585Z,100884.13
2022-12-15T15:51:39.619Z,100874.38
2022-12-15T15:54:45.321Z,100867.88
2022-12-15T15:57:50.446Z,100877.53
2022-12-15T16:00:55.919Z,100887.56
2022-12-15T16:04:02.370Z,100887.47
2022-12-15T16:07:07.699Z,100894.44
2022-12-15T16:10:15.369Z,100886.19
2022-12-15T16:13:26.315Z,100893.81
2022-12-15T16:16:33.665Z,100887.81
2022-12-15T16:19:40.383Z,100890.56
2022-12-15T16:22:47.340Z,100901.88
2022-12-15T16:25:54.018Z,100894.16
2022-12-15T16:28:59.691Z,100901.88
2022-12-15T16:32:05.955Z,100906.59
2022-12-15T16:35:13.004Z,100911.81
2022-12-15T16:38:22.631Z,100912.09
2022-12-15T16:41:27.883Z,100913.19
2022-12-15T16:44:32.903Z,100913.38
2022-12-15T16:47:39.287Z,100911.75
2022-12-15T16:50:48.795Z,100911.13
2022-12-15T16:53:53.784Z,100907.72
2022-12-15T16:57:00.039Z,100909.56
2022-12-15T17:00:15.887Z,100903.69
2022-12-15T17:03:23.775Z,100905.16
2022-12-15T17:06:30.361Z,100900.25
2022-12-15T17:09:38.257Z,100910.63
2022-12-15T17:12:44.561Z,100901.75
2022-12-15T17:15:49.534Z,100908.44
2022-12-15T17:18:54.924Z,100896.31
2022-12-15T17:22:01.496Z,100907.22
2022-12-15T17:25:07.374Z,100901.63
2022-12-15T17:28:18.046Z,100887.63
2022-12-15T17:31:31.528Z,100897.34
2022-12-15T17:34:40.051Z,100908.97
2022-12-15T17:37:47.160Z,100922.47
2022-12-15T17:40:53.607Z,100916.81
2022-12-15T17:44:24.034Z,100925.78
2022-12-15T17:47:24.825Z,100932.63
2022-12-15T17:50:29.840Z,100928.00
2022-12-15T17:53:37.430Z,100941.47
2022-12-15T17:56:42.976Z,100940.13
2022-12-15T17:59:48.414Z,100948.91
2022-12-15T18:02:53.977Z,100944.09
2022-12-15T18:05:59.685Z,100948.72
2022-12-15T18:09:07.148Z,100945.81
2022-12-15T18:12:19.872Z,100948.97
2022-12-15T18:15:27.623Z,100962.41
2022-12-15T18:18:32.551Z,100962.56
2022-12-15T18:21:40.048Z,100953.53
2022-12-15T18:24:46.397Z,100957.88
2022-12-15T18:27:55.151Z,100954.94
2022-12-15T18:31:04.536Z,100961.53
2022-12-15T18:34:13.914Z,100959.56
2022-12-15T18:37:20.344Z,100957.34
2022-12-15T18:40:29.200Z,100962.38
2022-12-15T18:43:35.667Z,100965.63
2022-12-15T18:46:46.177Z,100975.94
2022-12-15T18:49:52.857Z,100972.78
2022-12-15T18:53:00.810Z,100974.09
2022-12-15T18:56:09.327Z,100967.44
2022-12-15T18:59:16.004Z,100978.50
2022-12-15T19:02:23.384Z,100977.03
2022-12-15T19:05:30.077Z,100981.38
2022-12-15T19:08:40.544Z,100981.88
2022-12-15T19:12:17.815Z,100988.72
2022-12-15T19:15:23.250Z,100989.31
2022-12-15T19:18:46.351Z,100994.69
2022-12-15T19:22:23.191Z,101006.91
2022-12-15T19:25:29.784Z,100999.28
2022-12-15T19:28:36.535Z,101005.06
2022-12-15T19:31:42.693Z,101009.97
2022-12-15T19:34:47.495Z,101011.75
2022-12-15T19:37:55.143Z,101010.03
2022-12-15T19:41:01.316Z,101018.00
2022-12-15T19:44:12.456Z,101022.34
2022-12-15T19:47:17.379Z,101019.09
2022-12-15T19:50:24.419Z,101039.88
2022-12-15T19:53:30.602Z,101041.16
2022-12-15T19:56:36.624Z,101041.09
2022-12-15T19:59:43.483Z,101049.94
2022-12-15T20:02:49.078Z,101047.38
2022-12-15T20:05:54.963Z,101048.22
2022-12-15T20:09:01.511Z,101050.41
2022-12-15T20:12:10.855Z,101066.31
2022-12-15T20:15:19.338Z,101056.13
2022-12-15T20:18:24.713Z,101061.41
2022-12-15T20:21:34.497Z,101066.59
2022-12-15T20:24:39.474Z,101077.28
2022-12-15T20:27:44.623Z,101076.13
2022-12-15T20:30:51.989Z,101077.53
2022-12-15T20:33:57.118Z,101087.44
2022-12-15T20:37:02.329Z,101092.22
2022-12-15T20:40:22.379Z,101092.69
2022-12-15T20:43:28.377Z,101100.63
2022-12-15T20:46:36.072Z,101095.38
2022-12-15T20:49:41.056Z,101104.31
2022-12-15T20:52:45.993Z,101090.16
2022-12-15T20:55:51.723Z,101101.34
2022-12-15T20:58:58.088Z,101084.06
2022-12-15T21:02:04.904Z,101081.81
2022-12-15T21:05:18.228Z,101086.16
2022-12-15T21:08:25.222Z,101090.34
2022-12-15T21:11:33.515Z,101094.44
2022-12-15T21:14:38.965Z,101105.53
2022-12-15T21:17:46.038Z,101101.06
2022-12-15T21:20:54.890Z,101104.00
2022-12-15T21:24:00.122Z,101103.03
2022-12-15T21:27:05.311Z,101099.78
2022-12-15T21:30:17.600Z,101112.63
2022-12-15T21:33:24.447Z,101118.75
2022-12-15T21:36:29.649Z,101124.31
2022-12-15T21:39:36.444Z,101127.63
2022-12-15T21:42:42.895Z,101130.72
2022-12-15T21:45:48.372Z,101128.06
2022-12-15T21:49:12.249Z,101127.38
2022-12-15T21:52:17.511Z,101131.25
2022-12-15T21:55:24.001Z,101126.53
2022-12-15T21:58:28.814Z,101130.19
2022-12-15T22:01:34.102Z,101133.19
2022-12-15T22:04:41.491Z,101140.84
2022-12-15T22:07:46.845Z,101142.75
2022-12-15T22:10:53.026Z,101150.25
2022-12-15T22:14:02.744Z,101158.34
2022-12-15T22:17:17.204Z,101149.59
2022-12-15T22:20:25.452Z,101151.88
2022-12-15T22:23:30.548Z,101142.75
2022-12-15T22:27:00.244Z,101147.88
2022-12-15T22:30:17.954Z,101165.88
2022-12-15T22:33:25.432Z,101177.78
2022-12-15T22:36:31.509Z,101177.09
2022-12-15T22:39:36.410Z,101175.25
2022-12-15T22:42:43.221Z,101185.81
2022-12-15T22:45:50.786Z,101191.41
2022-12-15T22:48:58.005Z,101185.03
2022-12-15T22:52:04.594Z,101186.16
2022-12-15T22:55:15.975Z,101186.16
2022-12-15T22:58:26.905Z,101194.69
2022-12-15T23:01:32.223Z,101194.28
2022-12-15T23:04:37.644Z,101196.03
2022-12-15T23:07:45.382Z,101186.00
2022-12-15T23:11:08.471Z,101187.69
2022-12-15T23:14:15.589Z,101201.34
2022-12-15T23:17:19.980Z,101202.28
2022-12-15T23:20:24.866Z,101205.63
2022-12-15T23:23:32.935Z,101209.50
2022-12-15T23:26:38.122Z,101211.88
2022-12-15T23:29:43.190Z,101207.25
2022-12-15T23:32:48.111Z,101198.00
2022-12-15T23:35:55.066Z,101204.06
2022-12-15T23:39:01.502Z,101226.75
2022-12-15T23:42:06.703Z,101220.38
2022-12-15T23:45:12.678Z,101223.50
2022-12-15T23:48:17.794Z,101227.91
2022-12-15T23:51:23.327Z,101223.84
2022-12-15T23:54:29.699Z,101232.13
2022-12-15T23:57:35.940Z,101228.44
